createdAt,value
2018-12-23T00:00:33.091Z,1.43
2018-12-23T00:03:01.678Z,1.21
2018-12-23T00:05:30.256Z,0.90
2018-12-23T00:07:58.865Z,0.80
2018-12-23T00:10:27.434Z,0.71
2018-12-23T00:12:55.956Z,0.62
2018-12-23T00:15:24.450Z,0.60
2018-12-23T00:17:53.018Z,0.69
2018-12-23T00:20:21.575Z,0.73
2018-12-23T00:22:50.181Z,0.82
2018-12-23T00:25:18.721Z,0.96
2018-12-23T00:27:47.314Z,1.10
2018-12-23T00:30:15.924Z,1.16
2018-12-23T00:32:44.469Z,1.04
2018-12-23T00:35:20.180Z,0.86
2018-12-23T00:37:43.659Z,0.78
2018-12-23T00:40:12.219Z,0.82
2018-12-23T00:42:40.740Z,0.88
2018-12-23T00:45:09.381Z,0.84
2018-12-23T00:47:37.952Z,0.89
2018-12-23T00:50:08.047Z,0.99
2018-12-23T00:52:36.563Z,1.11
2018-12-23T00:55:05.343Z,1.07
2018-12-23T00:57:33.884Z,1.16
2018-12-23T01:00:02.579Z,1.09
2018-12-23T01:02:31.133Z,1.04
2018-12-23T01:04:59.654Z,1.06
2018-12-23T01:07:28.160Z,1.04
2018-12-23T01:09:56.688Z,1.12
2018-12-23T01:12:25.230Z,0.09
2018-12-23T01:14:53.774Z,1.34
2018-12-23T01:17:22.361Z,-0.13
2018-12-23T01:19:51.029Z,1.23
2018-12-23T01:22:19.594Z,1.23
2018-12-23T01:24:48.175Z,1.11
2018-12-23T01:27:16.778Z,1.10
2018-12-23T01:29:45.416Z,1.25
2018-12-23T01:32:13.969Z,1.38
2018-12-23T01:34:42.606Z,1.48
2018-12-23T01:37:11.204Z,1.62
2018-12-23T01:39:39.763Z,1.80
2018-12-23T01:42:08.350Z,1.71
2018-12-23T01:44:37.011Z,1.58
2018-12-23T01:47:05.571Z,1.53
2018-12-23T01:49:34.214Z,1.61
2018-12-23T01:52:02.830Z,1.59
2018-12-23T01:54:31.332Z,1.62
2018-12-23T01:56:59.934Z,1.58
2018-12-23T01:59:28.554Z,1.63
2018-12-23T02:01:57.088Z,1.66
2018-12-23T02:04:25.644Z,1.66
2018-12-23T02:06:54.231Z,1.61
2018-12-23T02:09:22.848Z,1.61
2018-12-23T02:11:51.711Z,1.70
2018-12-23T02:14:20.352Z,1.83
2018-12-23T02:16:48.928Z,1.85
2018-12-23T02:19:17.487Z,1.85
2018-12-23T02:21:46.049Z,1.87
2018-12-23T02:24:14.676Z,1.97
2018-12-23T02:26:43.268Z,2.10
2018-12-23T02:29:11.789Z,2.25
2018-12-23T02:31:40.342Z,2.24
2018-12-23T02:34:08.951Z,2.34
2018-12-23T02:36:37.577Z,2.40
2018-12-23T02:39:08.391Z,2.48
2018-12-23T02:41:37.027Z,2.48
2018-12-23T02:44:05.819Z,2.53
2018-12-23T02:46:34.430Z,2.63
2018-12-23T02:49:03.006Z,2.63
2018-12-23T02:51:31.616Z,2.41
2018-12-23T02:54:00.548Z,2.27
2018-12-23T02:56:29.117Z,2.30
2018-12-23T02:58:57.757Z,2.37
2018-12-23T03:01:26.347Z,2.33
2018-12-23T03:03:55.038Z,2.53
2018-12-23T03:06:23.585Z,2.64
2018-12-23T03:08:52.153Z,2.84
2018-12-23T03:11:20.782Z,2.98
2018-12-23T03:13:49.392Z,3.04
2018-12-23T03:16:17.987Z,3.08
2018-12-23T03:18:46.513Z,3.12
2018-12-23T03:21:15.104Z,3.17
2018-12-23T03:23:43.666Z,3.26
2018-12-23T03:26:12.285Z,3.28
2018-12-23T03:28:40.859Z,3.35
2018-12-23T03:31:09.413Z,3.19
2018-12-23T03:33:38.011Z,3.53
2018-12-23T03:36:14.728Z,3.63
2018-12-23T03:38:37.178Z,3.84
2018-12-23T03:41:06.034Z,4.02
2018-12-23T03:43:34.604Z,4.15
2018-12-23T03:46:03.176Z,3.97
2018-12-23T03:48:31.733Z,3.65
2018-12-23T03:51:00.281Z,3.42
2018-12-23T03:53:28.836Z,3.42
2018-12-23T03:55:57.323Z,3.28
2018-12-23T03:58:25.829Z,3.02
2018-12-23T04:00:54.414Z,2.79
2018-12-23T04:03:23.003Z,2.69
2018-12-23T04:05:51.589Z,2.54
2018-12-23T04:08:20.120Z,2.22
2018-12-23T04:10:48.727Z,2.12
2018-12-23T04:13:17.332Z,2.17
2018-12-23T04:15:45.919Z,2.11
2018-12-23T04:18:14.489Z,2.07
2018-12-23T04:20:43.100Z,2.08
2018-12-23T04:23:11.668Z,2.01
2018-12-23T04:25:40.192Z,1.95
2018-12-23T04:28:08.779Z,1.95
2018-12-23T04:30:37.362Z,2.03
2018-12-23T04:33:05.893Z,2.03
2018-12-23T04:35:34.467Z,2.08
2018-12-23T04:38:03.043Z,2.09
2018-12-23T04:43:06.302Z,2.21
2018-12-23T04:45:34.856Z,2.29
2018-12-23T04:48:03.503Z,2.41
2018-12-23T04:50:32.093Z,2.50
2018-12-23T04:53:00.681Z,2.60
2018-12-23T04:55:29.234Z,2.62
2018-12-23T04:57:57.800Z,2.66
2018-12-23T05:00:26.388Z,2.73
2018-12-23T05:02:55.021Z,2.83
2018-12-23T05:05:23.668Z,3.01
2018-12-23T05:07:52.237Z,2.97
2018-12-23T05:10:20.790Z,3.08
2018-12-23T05:12:49.645Z,3.12
2018-12-23T05:15:18.213Z,2.96
2018-12-23T05:17:46.773Z,2.48
2018-12-23T05:20:15.329Z,2.11
2018-12-23T05:22:43.936Z,2.14
2018-12-23T05:25:12.490Z,2.34
2018-12-23T05:27:41.085Z,2.73
2018-12-23T05:30:09.643Z,2.89
2018-12-23T05:32:38.163Z,2.87
2018-12-23T05:35:06.739Z,2.83
2018-12-23T05:37:35.283Z,2.74
2018-12-23T05:40:03.985Z,2.89
2018-12-23T05:42:32.507Z,3.07
2018-12-23T05:45:01.074Z,2.87
2018-12-23T05:47:29.692Z,2.40
2018-12-23T05:49:58.367Z,2.26
2018-12-23T05:52:27.008Z,2.12
2018-12-23T05:54:55.556Z,2.18
2018-12-23T05:57:24.120Z,2.25
2018-12-23T05:59:52.946Z,2.32
2018-12-23T06:02:21.537Z,2.50
2018-12-23T06:04:50.124Z,2.63
2018-12-23T06:07:18.683Z,2.67
2018-12-23T06:09:47.265Z,2.62
2018-12-23T06:12:15.808Z,2.44
2018-12-23T06:14:44.385Z,2.42
2018-12-23T06:17:12.958Z,2.48
2018-12-23T06:19:41.574Z,2.54
2018-12-23T06:22:10.110Z,2.67
2018-12-23T06:24:39.007Z,2.79
2018-12-23T06:27:07.620Z,2.82
2018-12-23T06:29:36.164Z,3.00
2018-12-23T06:32:04.875Z,2.96
2018-12-23T06:34:33.583Z,3.08
2018-12-23T06:37:09.715Z,3.29
2018-12-23T06:39:32.793Z,3.26
2018-12-23T06:42:01.368Z,3.21
2018-12-23T06:44:29.877Z,3.61
2018-12-23T06:47:05.206Z,3.96
2018-12-23T06:49:33.769Z,3.76
2018-12-23T06:52:02.287Z,3.87
2018-12-23T06:54:30.847Z,4.06
2018-12-23T06:56:59.466Z,4.20
2018-12-23T06:59:28.045Z,4.30
2018-12-23T07:01:56.615Z,4.43
2018-12-23T07:04:25.298Z,4.50
2018-12-23T07:06:53.918Z,4.44
2018-12-23T07:09:22.446Z,4.49
2018-12-23T07:11:51.032Z,5.04
2018-12-23T07:14:19.707Z,4.92
2018-12-23T07:16:48.282Z,5.05
2018-12-23T07:19:16.877Z,4.89
2018-12-23T07:21:45.427Z,4.95
2018-12-23T07:24:14.002Z,4.93
2018-12-23T07:26:43.659Z,5.27
2018-12-23T07:29:12.432Z,5.55
2018-12-23T07:31:40.957Z,5.88
2018-12-23T07:34:09.508Z,5.80
2018-12-23T07:36:38.157Z,5.89
2018-12-23T07:39:07.094Z,5.91
2018-12-23T07:41:35.724Z,5.91
2018-12-23T07:44:04.297Z,5.89
2018-12-23T07:46:32.885Z,5.99
2018-12-23T07:49:01.392Z,6.88
2018-12-23T07:51:29.936Z,7.77
2018-12-23T07:53:58.546Z,8.10
2018-12-23T07:56:27.072Z,8.46
2018-12-23T07:58:55.704Z,8.96
2018-12-23T08:01:24.242Z,9.07
2018-12-23T08:03:53.019Z,9.53
2018-12-23T08:06:21.707Z,10.02
2018-12-23T08:08:50.241Z,10.14
2018-12-23T08:11:18.827Z,10.66
2018-12-23T08:13:47.425Z,11.24
2018-12-23T08:16:16.005Z,11.75
2018-12-23T08:18:44.552Z,12.15
2018-12-23T08:21:13.082Z,12.38
2018-12-23T08:23:41.855Z,12.12
2018-12-23T08:26:10.395Z,12.22
2018-12-23T08:28:39.001Z,11.51
2018-12-23T08:31:07.573Z,11.49
2018-12-23T08:33:36.097Z,11.47
2018-12-23T08:36:04.824Z,11.78
2018-12-23T08:38:33.379Z,12.53
2018-12-23T08:41:01.980Z,13.04
2018-12-23T08:43:30.542Z,12.46
2018-12-23T08:45:59.172Z,12.29
2018-12-23T08:48:27.678Z,12.04
2018-12-23T08:50:56.211Z,12.09
2018-12-23T08:53:24.718Z,12.18
2018-12-23T08:55:53.280Z,12.29
2018-12-23T08:58:21.829Z,12.00
2018-12-23T09:00:50.600Z,12.66
2018-12-23T09:03:19.541Z,13.20
2018-12-23T09:05:48.159Z,13.44
2018-12-23T09:08:16.668Z,13.15
2018-12-23T09:10:45.258Z,13.01
2018-12-23T09:13:13.814Z,12.53
2018-12-23T09:15:42.429Z,12.54
2018-12-23T09:18:19.127Z,12.38
2018-12-23T09:20:41.647Z,12.33
2018-12-23T09:23:10.570Z,12.45
2018-12-23T09:25:39.323Z,12.85
2018-12-23T09:28:08.953Z,12.46
2018-12-23T09:30:37.726Z,12.42
2018-12-23T09:33:06.288Z,12.85
2018-12-23T09:35:35.176Z,12.99
2018-12-23T09:38:03.724Z,13.19
2018-12-23T09:40:32.340Z,12.53
2018-12-23T09:43:00.829Z,12.33
2018-12-23T09:45:29.561Z,12.16
2018-12-23T09:47:58.065Z,12.18
2018-12-23T09:50:26.649Z,12.53
2018-12-23T09:52:55.222Z,13.04
2018-12-23T09:55:23.857Z,13.43
2018-12-23T09:57:52.434Z,13.04
2018-12-23T10:00:21.134Z,13.40
2018-12-23T10:02:49.683Z,13.68
2018-12-23T10:05:18.215Z,13.36
2018-12-23T10:07:46.765Z,13.08
2018-12-23T10:10:16.208Z,13.12
2018-12-23T10:12:44.757Z,13.10
2018-12-23T10:15:13.306Z,12.98
2018-12-23T10:17:41.841Z,12.34
2018-12-23T10:20:10.382Z,12.09
2018-12-23T10:22:38.946Z,12.17
2018-12-23T10:25:07.542Z,11.49
2018-12-23T10:27:36.101Z,11.05
2018-12-23T10:30:12.295Z,10.68
2018-12-23T10:32:40.918Z,10.35
2018-12-23T10:35:09.445Z,9.97
2018-12-23T10:37:38.105Z,9.95
2018-12-23T10:40:07.038Z,10.38
2018-12-23T10:42:35.586Z,10.64
2018-12-23T10:45:04.320Z,11.01
2018-12-23T10:47:32.974Z,11.35
2018-12-23T10:50:01.487Z,11.68
2018-12-23T10:52:30.033Z,11.99
2018-12-23T10:54:58.555Z,12.05
2018-12-23T10:57:27.289Z,11.77
2018-12-23T10:59:55.851Z,11.90
2018-12-23T11:02:24.495Z,12.02
2018-12-23T11:04:53.018Z,12.04
2018-12-23T11:07:21.538Z,11.80
2018-12-23T11:09:50.139Z,11.65
2018-12-23T11:12:18.731Z,11.38
2018-12-23T11:14:47.301Z,11.25
2018-12-23T11:17:15.835Z,11.37
2018-12-23T11:19:44.411Z,11.49
2018-12-23T11:22:13.010Z,11.83
2018-12-23T11:24:41.561Z,11.90
2018-12-23T11:27:10.180Z,11.85
2018-12-23T11:29:38.768Z,11.78
2018-12-23T11:32:07.409Z,12.13
2018-12-23T11:34:36.318Z,12.30
2018-12-23T11:37:04.884Z,12.49
2018-12-23T11:39:33.402Z,12.98
2018-12-23T11:42:02.089Z,12.85
2018-12-23T11:44:30.692Z,12.80
2018-12-23T11:46:59.235Z,12.84
2018-12-23T11:49:27.934Z,12.96
2018-12-23T11:51:56.448Z,13.19
2018-12-23T11:54:25.077Z,13.26
2018-12-23T11:56:53.791Z,13.02
2018-12-23T11:59:22.395Z,12.63
2018-12-23T12:01:51.079Z,12.46
2018-12-23T12:04:19.675Z,12.43
2018-12-23T12:06:48.235Z,12.79
2018-12-23T12:09:16.776Z,12.59
2018-12-23T12:11:45.337Z,12.65
2018-12-23T12:14:13.873Z,12.89
2018-12-23T12:16:42.482Z,12.95
2018-12-23T12:19:11.043Z,12.70
2018-12-23T12:21:39.596Z,12.76
2018-12-23T12:24:08.171Z,12.49
2018-12-23T12:26:36.767Z,12.64
2018-12-23T12:29:05.302Z,12.39
2018-12-23T12:31:33.848Z,12.62
2018-12-23T12:34:02.418Z,11.93
2018-12-23T12:36:31.046Z,11.91
2018-12-23T12:39:01.658Z,12.40
2018-12-23T12:41:30.193Z,12.68
2018-12-23T12:43:58.815Z,12.33
2018-12-23T12:46:27.383Z,10.00
2018-12-23T12:48:55.953Z,11.45
2018-12-23T12:51:24.430Z,10.88
2018-12-23T12:53:52.944Z,10.71
2018-12-23T12:56:21.491Z,10.58
2018-12-23T12:58:50.071Z,10.42
2018-12-23T13:01:18.684Z,10.32
2018-12-23T13:03:47.165Z,10.20
2018-12-23T13:06:15.729Z,10.03
2018-12-23T13:08:44.327Z,9.82
2018-12-23T13:11:13.145Z,9.72
2018-12-23T13:13:41.650Z,9.66
2018-12-23T13:16:10.191Z,9.55
2018-12-23T13:18:38.822Z,9.51
2018-12-23T13:21:07.343Z,9.43
2018-12-23T13:23:35.929Z,9.28
2018-12-23T13:26:04.478Z,9.20
2018-12-23T13:28:33.026Z,8.98
2018-12-23T13:31:01.596Z,8.86
2018-12-23T13:33:30.202Z,8.82
2018-12-23T13:35:58.728Z,8.82
2018-12-23T13:38:27.270Z,8.84
2018-12-23T13:41:21.260Z,8.84
2018-12-23T13:44:19.814Z,8.80
2018-12-23T13:47:15.480Z,8.70
2018-12-23T13:51:57.599Z,8.76
2018-12-23T13:56:42.756Z,8.72
2018-12-23T13:59:23.279Z,8.62
2018-12-23T14:02:01.735Z,8.64
2018-12-23T14:04:40.306Z,8.55
2018-12-23T14:07:58.270Z,8.45
2018-12-23T14:11:22.809Z,8.33
2018-12-23T14:13:51.355Z,8.25
2018-12-23T14:16:19.918Z,8.17
2018-12-23T14:18:48.559Z,8.22
2018-12-23T14:21:17.170Z,8.16
2018-12-23T14:23:45.797Z,8.19
2018-12-23T14:26:14.324Z,8.18
2018-12-23T14:28:42.857Z,8.13
2018-12-23T14:31:11.365Z,8.05
2018-12-23T14:33:39.881Z,8.01
2018-12-23T14:36:08.445Z,7.99
2018-12-23T14:38:37.059Z,7.98
2018-12-23T14:41:05.770Z,7.99
2018-12-23T14:43:34.304Z,7.91
2018-12-23T14:46:02.883Z,7.90
2018-12-23T14:48:31.381Z,7.89
2018-12-23T14:51:00.023Z,7.86
2018-12-23T14:53:28.538Z,7.88
2018-12-23T14:55:57.069Z,7.83
2018-12-23T14:58:25.605Z,7.80
2018-12-23T15:00:54.177Z,7.79
2018-12-23T15:03:22.729Z,7.72
2018-12-23T15:05:51.317Z,7.67
2018-12-23T15:08:19.852Z,7.62
2018-12-23T15:10:48.398Z,7.60
2018-12-23T15:13:17.966Z,7.57
2018-12-23T15:15:46.721Z,7.54
2018-12-23T15:18:15.285Z,7.53
2018-12-23T15:20:43.927Z,7.54
2018-12-23T15:23:12.517Z,7.53
2018-12-23T15:25:41.015Z,7.51
2018-12-23T15:28:09.537Z,7.52
2018-12-23T15:30:38.215Z,7.44
2018-12-23T15:33:06.795Z,7.38
2018-12-23T15:35:37.906Z,7.36
2018-12-23T15:38:06.591Z,7.28
2018-12-23T15:40:35.144Z,7.21
2018-12-23T15:43:03.864Z,7.16
2018-12-23T15:45:32.401Z,7.07
2018-12-23T15:48:00.940Z,7.02
2018-12-23T15:50:29.466Z,6.96
2018-12-23T15:52:58.194Z,6.90
2018-12-23T15:55:26.783Z,6.81
2018-12-23T15:57:55.324Z,6.76
2018-12-23T16:00:23.878Z,6.68
2018-12-23T16:02:52.359Z,6.60
2018-12-23T16:05:20.899Z,6.53
2018-12-23T16:07:49.492Z,6.55
2018-12-23T16:10:18.101Z,6.55
2018-12-23T16:12:46.650Z,6.47
2018-12-23T16:15:15.174Z,6.46
2018-12-23T16:17:43.709Z,6.42
2018-12-23T16:20:13.656Z,6.35
2018-12-23T16:22:42.238Z,6.34
2018-12-23T16:25:10.832Z,6.58
2018-12-23T16:27:39.324Z,6.67
2018-12-23T16:30:10.523Z,6.69
2018-12-23T16:32:39.099Z,6.64
2018-12-23T16:35:07.632Z,6.60
2018-12-23T16:37:36.179Z,6.60
2018-12-23T16:40:06.327Z,6.62
2018-12-23T16:42:34.883Z,6.59
2018-12-23T16:45:03.443Z,6.56
2018-12-23T16:47:31.966Z,6.44
2018-12-23T16:50:00.445Z,6.41
2018-12-23T16:52:29.329Z,6.39
2018-12-23T16:54:57.907Z,6.34
2018-12-23T16:57:26.427Z,6.32
2018-12-23T16:59:54.987Z,6.43
2018-12-23T17:02:23.573Z,6.46
2018-12-23T17:04:52.083Z,6.55
2018-12-23T17:07:20.666Z,6.64
2018-12-23T17:09:49.218Z,6.59
2018-12-23T17:12:17.790Z,6.68
2018-12-23T17:14:46.342Z,6.80
2018-12-23T17:17:14.829Z,6.81
2018-12-23T17:19:43.376Z,6.93
2018-12-23T17:22:11.876Z,6.95
2018-12-23T17:24:40.478Z,7.00
2018-12-23T17:27:09.032Z,7.05
2018-12-23T17:29:37.609Z,7.00
2018-12-23T17:32:06.281Z,5.88
2018-12-23T17:34:34.821Z,7.13
2018-12-23T17:37:03.373Z,7.10
2018-12-23T17:39:31.949Z,7.19
2018-12-23T17:42:00.528Z,7.23
2018-12-23T17:44:29.208Z,7.28
2018-12-23T17:46:57.718Z,7.26
2018-12-23T17:49:26.228Z,7.24
2018-12-23T17:51:54.767Z,7.23
2018-12-23T17:54:23.253Z,7.20
2018-12-23T17:56:51.749Z,7.21
2018-12-23T17:59:20.307Z,7.23
2018-12-23T18:01:48.858Z,7.22
2018-12-23T18:04:17.455Z,7.18
2018-12-23T18:06:45.993Z,7.18
2018-12-23T18:09:14.571Z,7.18
2018-12-23T18:11:43.283Z,7.19
2018-12-23T18:14:12.051Z,7.15
2018-12-23T18:16:40.741Z,7.12
2018-12-23T18:19:09.308Z,7.09
2018-12-23T18:21:38.060Z,7.11
2018-12-23T18:24:06.674Z,7.08
2018-12-23T18:26:35.400Z,7.10
2018-12-23T18:29:03.951Z,7.17
2018-12-23T18:31:32.540Z,7.18
2018-12-23T18:34:01.110Z,7.21
2018-12-23T18:36:29.752Z,7.20
2018-12-23T18:38:58.376Z,7.16
2018-12-23T18:41:26.920Z,7.13
2018-12-23T18:43:55.481Z,7.08
2018-12-23T18:46:24.061Z,7.09
2018-12-23T18:48:52.582Z,7.09
2018-12-23T18:51:21.098Z,7.08
2018-12-23T18:53:49.673Z,6.88
2018-12-23T18:56:19.419Z,5.97
2018-12-23T18:58:47.934Z,5.45
2018-12-23T19:01:17.346Z,5.03
2018-12-23T19:03:45.849Z,4.93
2018-12-23T19:06:14.404Z,4.86
2018-12-23T19:08:59.465Z,4.82
2018-12-23T19:11:36.126Z,4.65
2018-12-23T19:14:16.372Z,4.77
2018-12-23T19:17:53.746Z,4.79
2018-12-23T19:20:50.835Z,4.64
2018-12-23T19:23:41.965Z,4.65
2018-12-23T19:27:21.637Z,4.57
2018-12-23T19:30:20.568Z,4.45
2018-12-23T19:34:14.446Z,4.44
2018-12-23T19:37:09.443Z,4.33
2018-12-23T19:40:14.230Z,4.32
2018-12-23T19:43:04.917Z,4.32
2018-12-23T19:45:59.459Z,4.32
2018-12-23T19:49:04.419Z,4.26
2018-12-23T19:52:23.996Z,4.28
2018-12-23T19:55:17.766Z,4.15
2018-12-23T19:58:26.994Z,4.15
2018-12-23T20:02:01.715Z,4.24
2018-12-23T20:05:26.315Z,4.11
2018-12-23T20:08:51.962Z,4.11
2018-12-23T20:12:06.857Z,3.91
2018-12-23T20:15:23.306Z,3.92
2018-12-23T20:18:42.944Z,3.91
2018-12-23T20:21:50.512Z,3.94
2018-12-23T20:25:06.821Z,3.97
2018-12-23T20:28:00.592Z,3.92
2018-12-23T20:31:05.427Z,3.95
2018-12-23T20:34:15.877Z,3.95
2018-12-23T20:37:47.647Z,4.00
2018-12-23T20:41:07.626Z,3.95
2018-12-23T20:44:07.035Z,3.92
2018-12-23T20:47:04.779Z,3.98
2018-12-23T20:50:30.264Z,3.92
2018-12-23T20:53:35.294Z,3.99
2018-12-23T20:56:55.235Z,4.02
2018-12-23T21:00:14.657Z,3.86
2018-12-23T21:02:58.852Z,4.00
2018-12-23T21:06:01.560Z,4.09
2018-12-23T21:09:09.835Z,4.13
2018-12-23T21:12:16.781Z,4.02
2018-12-23T21:15:26.592Z,1.34
2018-12-23T21:18:23.902Z,3.98
2018-12-23T21:21:31.885Z,2.36
2018-12-23T21:24:37.163Z,3.89
2018-12-23T21:27:36.978Z,3.95
2018-12-23T21:30:31.985Z,3.97
2018-12-23T21:33:39.897Z,3.92
2018-12-23T21:36:41.375Z,3.82
2018-12-23T21:40:09.706Z,3.85
2018-12-23T21:43:05.295Z,3.69
2018-12-23T21:45:56.879Z,3.62
2018-12-23T21:49:16.361Z,3.66
2018-12-23T21:52:26.033Z,3.59
2018-12-23T21:55:38.301Z,3.57
2018-12-23T21:58:47.256Z,3.61
2018-12-23T22:02:05.427Z,3.63
2018-12-23T22:05:24.839Z,3.63
2018-12-23T22:08:34.480Z,3.70
2018-12-23T22:11:35.539Z,3.71
2018-12-23T22:14:06.624Z,3.73
2018-12-23T22:16:36.269Z,3.70
2018-12-23T22:19:05.720Z,3.67
2018-12-23T22:21:35.571Z,3.63
2018-12-23T22:24:06.307Z,3.63
2018-12-23T22:26:35.808Z,3.54
2018-12-23T22:29:05.463Z,3.47
2018-12-23T22:31:36.110Z,3.59
2018-12-23T22:34:05.909Z,3.68
2018-12-23T22:36:35.260Z,3.77
2018-12-23T22:39:06.625Z,3.77
2018-12-23T22:41:41.467Z,3.83
2018-12-23T22:44:09.055Z,3.82
2018-12-23T22:46:38.491Z,3.71
2018-12-23T22:49:07.930Z,3.52
2018-12-23T22:51:37.617Z,3.44
2018-12-23T22:54:08.361Z,3.37
2018-12-23T22:56:37.759Z,3.35
2018-12-23T22:59:10.239Z,3.62
2018-12-23T23:01:40.281Z,3.70
2018-12-23T23:04:09.695Z,3.68
2018-12-23T23:06:39.287Z,3.55
2018-12-23T23:09:10.331Z,3.53
2018-12-23T23:11:39.811Z,3.52
2018-12-23T23:14:10.048Z,3.51
2018-12-23T23:16:40.366Z,3.56
2018-12-23T23:19:16.837Z,3.62
2018-12-23T23:21:46.415Z,3.64
2018-12-23T23:24:16.092Z,3.67
2018-12-23T23:26:46.451Z,3.57
2018-12-23T23:29:16.063Z,3.61
2018-12-23T23:31:54.010Z,3.57
2018-12-23T23:34:23.602Z,3.51
2018-12-23T23:36:53.057Z,3.54
2018-12-23T23:39:25.690Z,3.51
2018-12-23T23:41:58.470Z,3.51
2018-12-23T23:44:27.979Z,3.51
2018-12-23T23:46:57.696Z,3.48
2018-12-23T23:49:27.187Z,3.52
2018-12-23T23:51:56.676Z,3.52
2018-12-23T23:54:26.223Z,3.51
2018-12-23T23:56:55.684Z,3.61
2018-12-23T23:59:25.317Z,2.39
